Time;durP1;ratioP1;P1;durP2;ratioP2;P2;SDS_P1;SDS_P2;PMS_P1;PMS_P2;Temp;Humidity;BMP_temperature;BMP_pressure;BME280_temperature;BME280_humidity;BME280_pressure;Samples;Min_cycle;Max_cycle;Signal;HPM_P1;HPM_P2
2022/10/21 00:02:57;;;;;;;;;;;;;;;9.92;60.28;101311.53;5396839;32;35321;-76
2022/10/21 00:05:59;;;;;;;;;;;;;;;10.17;59.67;101300.47;5382041;32;34338;-77
2022/10/21 00:09:01;;;;;;;;;;;;;;;9.94;60.28;101309.75;5365179;32;34151;-77
2022/10/21 00:12:03;;;;;;;;;;;;;;;9.94;60.98;101303.63;5393930;32;36538;-77
2022/10/21 00:15:05;;;;;;;;;;;;;;;9.51;62.35;101299.25;5380139;32;35019;-77
2022/10/21 00:18:07;;;;;;;;;;;;;;;9.00;64.36;101301.13;5395916;32;34921;-77
2022/10/21 00:21:19;;;;;;;;;;;;;;;9.68;61.93;101299.78;5378682;32;34900;-77
2022/10/21 00:24:21;;;;;;;;;;;;;;;9.66;61.92;101298.97;5389168;32;34532;-78
2022/10/21 00:27:23;;;;;;;;;;;;;;;10.27;59.93;101284.50;5386129;32;35403;-77
2022/10/21 00:30:24;;;;;;;;;;;;;;;9.69;61.13;101293.66;5367419;32;35222;-77
2022/10/21 00:33:26;;;;;;;;;;;;;;;9.37;63.04;101291.69;5393433;32;35317;-77
2022/10/21 00:36:30;;;;;;;;;;;;;;;9.41;63.40;101289.88;5370705;32;34072;-76
2022/10/21 00:39:32;;;;;;;;;;;;;;;10.19;60.34;101278.53;5390112;32;34530;-77
2022/10/21 00:42:36;;;;;;;;;;;;;;;9.89;60.74;101284.47;5382496;32;34169;-76
2022/10/21 00:45:42;;;;;;;;;;;;;;;9.14;63.21;101286.00;5379378;32;44607;-77
2022/10/21 00:48:45;;;;;;;;;;;;;;;8.67;65.59;101275.47;5392021;32;35808;-76
2022/10/21 00:51:48;;;;;;;;;;;;;;;8.91;65.09;101265.47;5378458;32;34844;-76
2022/10/21 00:54:51;;;;;;;;;;;;;;;9.71;61.90;101259.47;5397800;32;35088;-76
2022/10/21 00:57:53;;;;;;;;;;;;;;;8.95;64.55;101261.88;5382037;32;35445;-76
2022/10/21 01:00:55;;;;;;;;;;;;;;;8.71;65.57;101257.97;5397724;32;35509;-76
2022/10/21 01:03:57;;;;;;;;;;;;;;;9.33;61.87;101263.75;5385096;32;34346;-76
2022/10/21 01:06:59;;;;;;;;;;;;;;;8.75;64.96;101259.63;5371418;32;35355;-77
2022/10/21 01:10:01;;;;;;;;;;;;;;;8.53;65.94;101264.37;5361354;32;34138;-77
2022/10/21 01:13:24;;;;;;;;;;;;;;;7.96;67.96;101253.00;5367086;32;35157;-77
2022/10/21 01:16:36;;;;;;;;;;;;;;;9.45;63.19;101246.91;5380500;32;35454;-76
2022/10/21 01:19:38;;;;;;;;;;;;;;;8.54;64.88;101254.75;5376872;32;34363;-77
2022/10/21 01:22:40;;;;;;;;;;;;;;;8.91;64.55;101239.25;5379906;32;43618;-78
2022/10/21 01:25:58;;;;;;;;;;;;;;;8.88;64.54;101252.38;5388977;32;35900;-77
2022/10/21 01:29:09;;;;;;;;;;;;;;;8.32;66.49;101254.22;5382738;32;35146;-76
2022/10/21 01:32:11;;;;;;;;;;;;;;;8.13;67.42;101258.88;5394485;32;45001;-77
2022/10/21 01:35:22;;;;;;;;;;;;;;;7.63;69.94;101254.34;5365787;32;34997;-77
2022/10/21 01:38:30;;;;;;;;;;;;;;;7.76;69.80;101250.69;5395948;32;34058;-77
2022/10/21 01:41:40;;;;;;;;;;;;;;;8.26;67.73;101249.06;5384453;32;35292;-78
2022/10/21 01:44:42;;;;;;;;;;;;;;;8.55;66.85;101243.37;5379360;32;44858;-76
2022/10/21 01:47:45;;;;;;;;;;;;;;;8.73;66.08;101229.09;5392311;32;35250;-77
2022/10/21 01:50:50;;;;;;;;;;;;;;;8.07;67.85;101224.94;5381253;32;36587;-79
2022/10/21 01:53:54;;;;;;;;;;;;;;;7.49;71.40;101231.84;5399066;32;34379;-77
2022/10/21 01:56:56;;;;;;;;;;;;;;;7.77;70.03;101218.38;5374416;32;35619;-76
2022/10/21 01:59:58;;;;;;;;;;;;;;;7.66;69.85;101220.28;5380302;32;34528;-77
2022/10/21 02:03:00;;;;;;;;;;;;;;;8.55;67.51;101219.78;5396866;32;36367;-77
2022/10/21 02:06:02;;;;;;;;;;;;;;;7.99;69.20;101214.56;5383485;32;34166;-78
2022/10/21 02:09:04;;;;;;;;;;;;;;;8.74;65.91;101229.06;5367854;32;34706;-77
2022/10/21 02:12:06;;;;;;;;;;;;;;;8.29;66.61;101222.81;5378046;32;34962;-77
2022/10/21 02:15:08;;;;;;;;;;;;;;;7.47;71.27;101219.66;5394584;32;35774;-76
2022/10/21 02:18:21;;;;;;;;;;;;;;;8.40;67.66;101221.78;5384286;32;46287;-77
2022/10/21 02:21:24;;;;;;;;;;;;;;;8.19;67.88;101219.50;5371688;32;35010;-77
2022/10/21 02:24:26;;;;;;;;;;;;;;;8.86;65.83;101234.06;5394218;32;34103;-77
2022/10/21 02:27:28;;;;;;;;;;;;;;;8.72;64.29;101238.72;5380685;32;34342;-77
2022/10/21 02:30:31;;;;;;;;;;;;;;;8.15;68.04;101237.00;5390150;32;33984;-76
2022/10/21 02:33:45;;;;;;;;;;;;;;;8.95;64.98;101238.28;5380382;32;35757;-76
2022/10/21 02:36:52;;;;;;;;;;;;;;;8.33;66.47;101225.38;5389511;32;45201;-77
2022/10/21 02:40:14;;;;;;;;;;;;;;;7.53;70.91;101240.50;5391335;32;34842;-77
2022/10/21 02:43:20;;;;;;;;;;;;;;;8.52;67.90;101246.06;5375599;32;44555;-77
2022/10/21 02:46:22;;;;;;;;;;;;;;;9.34;63.18;101243.63;5380633;32;34482;-78
2022/10/21 02:49:24;;;;;;;;;;;;;;;7.46;70.78;101244.94;5386311;32;35221;-77
2022/10/21 02:52:26;;;;;;;;;;;;;;;8.08;69.36;101243.22;5397084;32;33219;-77
2022/10/21 02:55:28;;;;;;;;;;;;;;;8.44;66.30;101242.69;5383632;32;34202;-77
2022/10/21 02:58:29;;;;;;;;;;;;;;;7.55;71.47;101241.38;5383755;32;35309;-77
2022/10/21 03:01:31;;;;;;;;;;;;;;;7.38;71.55;101225.03;5394148;32;34890;-77
2022/10/21 03:04:33;;;;;;;;;;;;;;;7.86;70.10;101218.28;5371341;32;35036;-76
2022/10/21 03:07:35;;;;;;;;;;;;;;;8.10;68.46;101228.34;5372247;32;35570;-77
2022/10/21 03:10:38;;;;;;;;;;;;;;;7.93;67.86;101230.37;5362276;32;34932;-77
2022/10/21 03:13:39;;;;;;;;;;;;;;;7.14;72.13;101232.25;5386358;32;36319;-77
2022/10/21 03:16:41;;;;;;;;;;;;;;;7.15;72.59;101214.81;5361410;32;34741;-77
2022/10/21 03:19:43;;;;;;;;;;;;;;;8.49;66.53;101236.47;5383514;32;35443;-77
2022/10/21 03:22:45;;;;;;;;;;;;;;;7.53;69.19;101235.28;5396102;32;37269;-77
2022/10/21 03:25:47;;;;;;;;;;;;;;;6.96;72.42;101245.56;5380336;32;34756;-77
2022/10/21 03:28:49;;;;;;;;;;;;;;;7.91;69.08;101237.37;5398057;32;34479;-77
2022/10/21 03:31:50;;;;;;;;;;;;;;;7.25;71.17;101242.59;5377702;32;34691;-77
2022/10/21 03:34:52;;;;;;;;;;;;;;;7.28;72.00;101234.75;5383302;32;34714;-76
2022/10/21 03:37:54;;;;;;;;;;;;;;;7.34;71.06;101232.03;5384353;32;36316;-77
2022/10/21 03:41:01;;;;;;;;;;;;;;;6.68;73.82;101230.16;5378365;32;34832;-77
2022/10/21 03:44:03;;;;;;;;;;;;;;;6.99;72.30;101214.16;5399070;32;36369;-77
2022/10/21 03:47:05;;;;;;;;;;;;;;;7.37;71.60;101211.09;5377496;32;34287;-76
2022/10/21 03:50:07;;;;;;;;;;;;;;;6.76;72.33;101224.84;5395048;32;34870;-77
2022/10/21 03:53:14;;;;;;;;;;;;;;;7.15;69.94;101212.22;5384629;32;45992;-77
2022/10/21 03:56:36;;;;;;;;;;;;;;;7.49;69.81;101223.16;5372380;32;35250;-78
2022/10/21 03:59:38;;;;;;;;;;;;;;;7.23;68.72;101206.03;5377421;32;35056;-77
2022/10/21 04:02:40;;;;;;;;;;;;;;;6.37;73.53;101207.78;5375723;32;43155;-76
2022/10/21 04:05:42;;;;;;;;;;;;;;;7.46;70.40;101197.88;5393197;32;35455;-78
2022/10/21 04:08:44;;;;;;;;;;;;;;;7.01;70.99;101205.41;5369009;32;36025;-77
2022/10/21 04:11:46;;;;;;;;;;;;;;;6.45;72.97;101211.22;5390798;32;35443;-77
2022/10/21 04:14:47;;;;;;;;;;;;;;;7.09;70.85;101194.88;5383579;32;34555;-77
2022/10/21 04:17:49;;;;;;;;;;;;;;;6.70;71.22;101198.81;5390442;32;35913;-76
2022/10/21 04:20:51;;;;;;;;;;;;;;;7.00;70.19;101193.22;5391811;32;35375;-76
2022/10/21 04:23:53;;;;;;;;;;;;;;;7.38;69.22;101189.28;5371899;32;35429;-76
2022/10/21 04:26:55;;;;;;;;;;;;;;;8.59;63.74;101190.91;5391985;32;34503;-77
2022/10/21 04:29:57;;;;;;;;;;;;;;;8.38;64.27;101183.44;5381193;32;34230;-76
2022/10/21 04:32:59;;;;;;;;;;;;;;;8.39;64.19;101179.91;5393108;32;35313;-77
2022/10/21 04:36:01;;;;;;;;;;;;;;;7.78;65.65;101186.09;5381719;32;34400;-77
2022/10/21 04:39:03;;;;;;;;;;;;;;;7.68;66.81;101181.91;5382924;32;34942;-76
2022/10/21 04:42:05;;;;;;;;;;;;;;;7.92;66.62;101183.25;5390187;32;36620;-76
2022/10/21 04:45:07;;;;;;;;;;;;;;;8.15;64.15;101175.91;5378824;32;34364;-77
2022/10/21 04:48:09;;;;;;;;;;;;;;;7.64;65.86;101162.75;5397583;32;34262;-77
2022/10/21 04:51:10;;;;;;;;;;;;;;;7.51;68.25;101162.06;5381705;32;44698;-77
2022/10/21 04:54:12;;;;;;;;;;;;;;;8.26;65.25;101155.66;5376922;32;34640;-77
2022/10/21 04:57:14;;;;;;;;;;;;;;;8.22;64.67;101150.50;5377184;32;34963;-76
2022/10/21 05:00:16;;;;;;;;;;;;;;;7.17;67.98;101151.19;5381389;32;35684;-79
2022/10/21 05:03:19;;;;;;;;;;;;;;;7.39;68.81;101149.16;5376976;32;35029;-81
2022/10/21 05:06:21;;;;;;;;;;;;;;;8.32;65.59;101144.22;5381784;32;35435;-76
2022/10/21 05:09:23;;;;;;;;;;;;;;;7.53;67.79;101143.72;5371072;32;34114;-80
2022/10/21 05:12:25;;;;;;;;;;;;;;;7.64;67.80;101143.56;5372114;32;35220;-78
2022/10/21 05:15:27;;;;;;;;;;;;;;;7.79;66.94;101157.31;5396000;32;34521;-76
2022/10/21 05:18:29;;;;;;;;;;;;;;;8.43;64.62;101158.00;5386691;32;35442;-76
2022/10/21 05:21:31;;;;;;;;;;;;;;;7.54;69.13;101164.66;5382296;32;34294;-72
2022/10/21 05:24:33;;;;;;;;;;;;;;;7.33;69.81;101165.78;5395845;32;34407;-81
2022/10/21 05:27:35;;;;;;;;;;;;;;;6.88;72.72;101166.34;5379052;32;33241;-78
2022/10/21 05:30:37;;;;;;;;;;;;;;;7.27;71.13;101158.03;5388233;32;37011;-79
2022/10/21 05:33:39;;;;;;;;;;;;;;;7.34;70.68;101158.81;5385924;32;34344;-78
2022/10/21 05:36:41;;;;;;;;;;;;;;;7.95;68.22;101150.06;5395688;32;44696;-78
2022/10/21 05:39:43;;;;;;;;;;;;;;;8.43;65.61;101144.88;5376875;32;34217;-76
2022/10/21 05:42:45;;;;;;;;;;;;;;;8.93;63.57;101137.81;5367119;32;34729;-79
2022/10/21 05:45:47;;;;;;;;;;;;;;;8.91;63.26;101139.63;5395748;32;34898;-79
2022/10/21 05:48:49;;;;;;;;;;;;;;;8.88;64.01;101165.87;5383378;32;34231;-76
2022/10/21 05:51:51;;;;;;;;;;;;;;;6.98;70.45;101181.06;5394267;32;34228;-73
2022/10/21 05:54:52;;;;;;;;;;;;;;;7.66;70.49;101171.44;5381748;32;35787;-80
2022/10/21 05:57:54;;;;;;;;;;;;;;;8.75;66.32;101148.66;5380337;32;33644;-77
2022/10/21 06:01:00;;;;;;;;;;;;;;;8.50;66.62;101143.91;5381731;32;36833;-76
2022/10/21 06:04:02;;;;;;;;;;;;;;;9.21;63.50;101140.75;5377458;32;34268;-83
2022/10/21 06:07:04;;;;;;;;;;;;;;;10.36;58.86;101164.28;5374383;32;34151;-80
2022/10/21 06:10:07;;;;;;;;;;;;;;;10.10;58.10;101173.66;5350710;32;33929;-78
2022/10/21 06:13:09;;;;;;;;;;;;;;;11.32;55.64;101180.03;5398115;32;34328;-87
2022/10/21 06:16:11;;;;;;;;;;;;;;;11.63;53.59;101190.50;5379789;32;44893;-88
2022/10/21 06:19:13;;;;;;;;;;;;;;;10.56;56.15;101204.94;5388300;32;36183;-79
2022/10/21 06:22:15;;;;;;;;;;;;;;;10.98;55.72;101188.03;5374587;32;34166;-91
2022/10/21 06:25:17;;;;;;;;;;;;;;;10.08;56.56;101180.72;5368258;32;34461;-75
2022/10/21 06:28:19;;;;;;;;;;;;;;;11.16;53.56;101189.31;5390865;32;35754;-78
2022/10/21 06:31:21;;;;;;;;;;;;;;;11.57;53.07;101185.44;5359403;32;36847;-75
2022/10/21 06:34:24;;;;;;;;;;;;;;;11.90;51.89;101183.56;5385499;32;35687;-74
2022/10/21 06:37:25;;;;;;;;;;;;;;;11.24;53.04;101182.03;5380389;32;35689;-74
2022/10/21 06:40:27;;;;;;;;;;;;;;;12.75;50.11;101182.44;5392484;32;33040;-75
2022/10/21 06:43:29;;;;;;;;;;;;;;;13.86;45.66;101187.09;5377233;32;35607;-80
2022/10/21 06:46:31;;;;;;;;;;;;;;;12.98;49.21;101193.03;5377049;32;34173;-85
2022/10/21 06:49:37;;;;;;;;;;;;;;;13.76;46.14;101202.44;5377057;32;35427;-81
2022/10/21 06:52:39;;;;;;;;;;;;;;;12.45;49.24;101198.41;5359705;32;33992;-84
2022/10/21 06:55:41;;;;;;;;;;;;;;;14.60;43.76;101186.66;5375924;32;44465;-75
2022/10/21 06:58:46;;;;;;;;;;;;;;;13.30;45.54;101177.81;5381259;32;34338;-77
2022/10/21 07:01:48;;;;;;;;;;;;;;;12.87;46.80;101174.06;5377999;32;34367;-78
2022/10/21 07:05:06;;;;;;;;;;;;;;;13.45;46.26;101158.72;5391601;32;34576;-83
2022/10/21 07:08:08;;;;;;;;;;;;;;;12.92;47.21;101151.03;5363812;32;34748;-79
2022/10/21 07:11:13;;;;;;;;;;;;;;;11.91;49.62;101148.38;5385959;32;45136;-78
2022/10/21 07:14:15;;;;;;;;;;;;;;;14.29;44.16;101151.81;5383621;32;34489;-88
2022/10/21 07:17:18;;;;;;;;;;;;;;;14.79;42.78;101162.91;5392633;32;34941;-89
2022/10/21 07:20:20;;;;;;;;;;;;;;;12.68;45.51;101173.00;5372891;32;37521;-80
2022/10/21 07:23:22;;;;;;;;;;;;;;;15.40;40.80;101165.41;5373129;32;34219;-81
2022/10/21 07:26:25;;;;;;;;;;;;;;;13.69;43.48;101179.84;5382275;32;34727;-81
2022/10/21 07:29:27;;;;;;;;;;;;;;;13.14;45.54;101181.94;5369767;32;34743;-86
2022/10/21 07:32:29;;;;;;;;;;;;;;;13.14;43.99;101174.00;5392079;32;34290;-78
2022/10/21 07:35:31;;;;;;;;;;;;;;;11.89;46.77;101192.38;5372800;32;35312;-86
2022/10/21 07:38:33;;;;;;;;;;;;;;;11.54;48.74;101199.56;5400588;32;34618;-81
2022/10/21 07:41:46;;;;;;;;;;;;;;;10.58;51.38;101191.75;5374458;32;34240;-86
2022/10/21 07:44:49;;;;;;;;;;;;;;;11.92;48.10;101185.25;5385870;32;44680;-74
2022/10/21 07:47:51;;;;;;;;;;;;;;;10.12;53.00;101182.37;5383536;32;36093;-76
2022/10/21 07:50:53;;;;;;;;;;;;;;;10.30;52.27;101192.47;5376658;32;35609;-78
2022/10/21 07:53:56;;;;;;;;;;;;;;;10.44;52.45;101184.25;5383480;32;34002;-77
2022/10/21 07:56:58;;;;;;;;;;;;;;;11.97;47.69;101173.69;5364079;32;33546;-78
2022/10/21 07:59:59;;;;;;;;;;;;;;;10.67;51.79;101185.38;5386884;32;34988;-75
2022/10/21 08:03:01;;;;;;;;;;;;;;;10.95;51.00;101167.06;5374392;32;35382;-73
2022/10/21 08:06:03;;;;;;;;;;;;;;;10.83;50.47;101168.31;5374012;32;37329;-73
2022/10/21 08:09:06;;;;;;;;;;;;;;;10.92;50.61;101165.41;5357873;32;36137;-80
2022/10/21 08:12:08;;;;;;;;;;;;;;;10.84;51.29;101149.84;5386322;32;35393;-75
2022/10/21 08:15:16;;;;;;;;;;;;;;;11.45;49.31;101138.41;5379853;32;44826;-75
2022/10/21 08:18:18;;;;;;;;;;;;;;;11.21;49.36;101138.28;5372079;32;35013;-89
2022/10/21 08:21:21;;;;;;;;;;;;;;;10.94;49.98;101137.28;5385453;32;35722;-84
2022/10/21 08:24:23;;;;;;;;;;;;;;;11.71;48.29;101127.94;5394208;32;36062;-83
2022/10/21 08:27:25;;;;;;;;;;;;;;;12.74;46.00;101114.75;5382631;32;35555;-77
2022/10/21 08:30:31;;;;;;;;;;;;;;;11.98;48.12;101120.06;5397930;32;35359;-85
2022/10/21 08:33:33;;;;;;;;;;;;;;;12.90;45.45;101115.94;5382968;32;34148;-73
2022/10/21 08:36:35;;;;;;;;;;;;;;;11.92;48.00;101114.13;5392313;32;35540;-87
2022/10/21 08:39:37;;;;;;;;;;;;;;;12.30;47.68;101116.34;5384289;32;34442;-83
2022/10/21 08:42:41;;;;;;;;;;;;;;;11.83;48.76;101121.44;5392802;32;35774;-83
2022/10/21 08:46:13;;;;;;;;;;;;;;;11.85;48.86;101123.12;5389569;32;44763;-82
2022/10/21 08:49:22;;;;;;;;;;;;;;;12.23;47.80;101107.78;5374033;32;44641;-75
2022/10/21 08:52:49;;;;;;;;;;;;;;;12.54;47.11;101096.19;5388773;32;33997;-76
2022/10/21 08:55:51;;;;;;;;;;;;;;;12.42;47.57;101093.06;5385774;32;34890;-77
2022/10/21 08:58:53;;;;;;;;;;;;;;;13.46;44.49;101094.47;5383838;32;36177;-86
2022/10/21 09:02:00;;;;;;;;;;;;;;;13.07;45.92;101086.25;5394219;32;35814;-87
2022/10/21 09:05:17;;;;;;;;;;;;;;;13.71;44.12;101081.09;5367383;32;33828;-85
2022/10/21 09:08:24;;;;;;;;;;;;;;;14.54;42.17;101065.22;5377169;32;37398;-82
2022/10/21 09:11:29;;;;;;;;;;;;;;;13.57;43.92;101064.97;5379161;32;34411;-87
2022/10/21 09:14:37;;;;;;;;;;;;;;;13.43;44.09;101073.44;5387907;32;34561;-85
2022/10/21 09:17:39;;;;;;;;;;;;;;;13.67;42.41;101071.59;5393482;32;34854;-83
2022/10/21 09:20:42;;;;;;;;;;;;;;;14.74;40.57;101053.75;5382666;32;45031;-83
2022/10/21 09:23:47;;;;;;;;;;;;;;;14.58;40.31;101050.09;5391703;32;35088;-77
2022/10/21 09:26:49;;;;;;;;;;;;;;;15.49;38.91;101049.34;5381479;32;35904;-76
2022/10/21 09:30:01;;;;;;;;;;;;;;;15.75;38.20;101056.88;5396825;32;34935;-81
2022/10/21 09:33:06;;;;;;;;;;;;;;;15.71;38.16;101050.00;5388951;32;34745;-77
2022/10/21 09:36:19;;;;;;;;;;;;;;;15.15;39.25;101048.31;5381192;32;34126;-77
2022/10/21 09:39:24;;;;;;;;;;;;;;;16.30;36.85;101042.62;5394250;32;38036;-82
2022/10/21 09:42:26;;;;;;;;;;;;;;;15.44;38.08;101042.47;5381530;32;33033;-80
2022/10/21 09:45:48;;;;;;;;;;;;;;;15.95;36.80;101032.03;5372315;32;46575;-86
2022/10/21 09:48:50;;;;;;;;;;;;;;;15.76;37.26;101016.19;5376129;32;36100;-80
2022/10/21 09:52:12;;;;;;;;;;;;;;;15.81;37.15;101013.31;5375214;32;44818;-77
2022/10/21 09:55:14;;;;;;;;;;;;;;;15.88;37.02;101007.63;5388816;32;34990;-82
2022/10/21 09:58:27;;;;;;;;;;;;;;;15.85;37.19;101014.91;5366902;32;34905;-79
2022/10/21 10:01:29;;;;;;;;;;;;;;;14.82;39.21;101006.63;5392599;32;34294;-80
2022/10/21 10:04:31;;;;;;;;;;;;;;;15.06;38.61;100995.81;5370219;32;33530;-79
2022/10/21 10:07:34;;;;;;;;;;;;;;;15.06;38.75;100996.66;5376425;32;34539;-79
2022/10/21 10:10:36;;;;;;;;;;;;;;;14.30;40.66;100990.47;5372422;32;33470;-82
2022/10/21 10:13:40;;;;;;;;;;;;;;;15.20;38.47;100989.84;5361647;32;35348;-81
2022/10/21 10:16:42;;;;;;;;;;;;;;;15.60;36.98;100979.00;5382738;32;44545;-79
2022/10/21 10:20:03;;;;;;;;;;;;;;;15.80;36.14;100980.66;5369295;32;34116;-81
2022/10/21 10:23:07;;;;;;;;;;;;;;;14.75;38.60;100983.16;5389632;32;33702;-79
2022/10/21 10:26:10;;;;;;;;;;;;;;;15.57;37.52;100979.13;5377091;32;34947;-76
2022/10/21 10:29:14;;;;;;;;;;;;;;;15.77;37.33;100956.94;5377798;32;44533;-89
2022/10/21 10:32:17;;;;;;;;;;;;;;;15.74;36.80;100953.62;5391912;32;35679;-79
2022/10/21 10:35:29;;;;;;;;;;;;;;;16.22;36.06;100960.78;5376390;32;35443;-74
2022/10/21 10:38:36;;;;;;;;;;;;;;;16.28;36.01;100959.59;5379494;32;34346;-73
2022/10/21 10:41:38;;;;;;;;;;;;;;;16.07;35.97;100945.69;5371580;32;34309;-73
2022/10/21 10:44:40;;;;;;;;;;;;;;;16.16;35.60;100951.34;5374283;32;43440;-73
2022/10/21 10:47:45;;;;;;;;;;;;;;;16.79;34.33;100929.38;5380121;32;34837;-72
2022/10/21 10:50:48;;;;;;;;;;;;;;;16.58;34.52;100934.06;5374585;32;32889;-72
2022/10/21 10:54:05;;;;;;;;;;;;;;;15.17;37.27;100938.75;5389369;32;34279;-71
2022/10/21 10:57:17;;;;;;;;;;;;;;;15.15;37.56;100930.03;5374810;32;34567;-70
2022/10/21 11:00:20;;;;;;;;;;;;;;;15.93;35.96;100904.87;5384789;32;44652;-72
2022/10/21 11:03:26;;;;;;;;;;;;;;;15.84;36.01;100910.66;5380140;32;35777;-69
2022/10/21 11:06:37;;;;;;;;;;;;;;;16.62;34.57;100901.13;5368326;32;35507;-70
2022/10/21 11:09:39;;;;;;;;;;;;;;;16.61;34.39;100893.22;5362386;32;34115;-69
2022/10/21 11:12:41;;;;;;;;;;;;;;;16.44;34.68;100897.69;5374261;32;44167;-71
2022/10/21 11:16:01;;;;;;;;;;;;;;;16.73;34.38;100904.03;5386380;32;34272;-75
2022/10/21 11:19:18;;;;;;;;;;;;;;;16.24;34.90;100893.47;5356252;32;34284;-76
2022/10/21 11:22:40;;;;;;;;;;;;;;;16.39;35.06;100883.81;5362189;32;43358;-73
2022/10/21 11:25:43;;;;;;;;;;;;;;;16.71;33.97;100874.06;5367655;32;45192;-78
2022/10/21 11:28:54;;;;;;;;;;;;;;;16.66;33.77;100875.25;5371076;32;34410;-79
2022/10/21 11:31:56;;;;;;;;;;;;;;;16.79;33.81;100877.13;5350529;32;34069;-80
2022/10/21 11:35:22;;;;;;;;;;;;;;;16.60;33.93;100876.44;5369312;32;43656;-77
2022/10/21 11:38:29;;;;;;;;;;;;;;;16.70;34.30;100871.50;5368904;32;36158;-82
2022/10/21 11:41:31;;;;;;;;;;;;;;;15.79;36.02;100864.13;5390127;32;33575;-82
2022/10/21 11:44:33;;;;;;;;;;;;;;;16.22;34.55;100847.59;5375015;32;35774;-82
2022/10/21 11:47:40;;;;;;;;;;;;;;;15.92;35.11;100828.94;5395857;32;34988;-79
2022/10/21 11:50:47;;;;;;;;;;;;;;;16.72;34.19;100843.94;5369558;32;44311;-74
2022/10/21 11:54:01;;;;;;;;;;;;;;;16.07;35.32;100834.34;5377930;32;35943;-85
2022/10/21 11:57:07;;;;;;;;;;;;;;;15.91;35.49;100842.28;5395629;32;33818;-88
2022/10/21 12:00:19;;;;;;;;;;;;;;;16.22;34.39;100826.38;5370562;32;34163;-77
2022/10/21 12:03:37;;;;;;;;;;;;;;;16.20;34.78;100830.06;5375537;32;34496;-84
2022/10/21 12:06:39;;;;;;;;;;;;;;;16.57;33.43;100818.25;5376549;32;37483;-83
2022/10/21 12:09:43;;;;;;;;;;;;;;;16.46;33.33;100812.69;5351206;32;44631;-77
2022/10/21 12:12:46;;;;;;;;;;;;;;;16.61;32.81;100809.16;5384721;32;34347;-82
2022/10/21 12:15:55;;;;;;;;;;;;;;;16.51;33.08;100814.16;5360430;32;34349;-81
2022/10/21 12:18:59;;;;;;;;;;;;;;;16.40;32.85;100805.06;5392199;32;32940;-83
2022/10/21 12:22:01;;;;;;;;;;;;;;;16.32;33.22;100809.97;5383120;32;35163;-79
2022/10/21 12:25:03;;;;;;;;;;;;;;;16.35;33.37;100796.53;5392040;32;34831;-81
2022/10/21 12:28:24;;;;;;;;;;;;;;;16.20;33.64;100807.06;5386971;32;32858;-84
2022/10/21 12:31:38;;;;;;;;;;;;;;;15.78;34.06;100802.34;5380222;32;34848;-81
2022/10/21 12:34:40;;;;;;;;;;;;;;;15.55;34.73;100808.81;5395017;32;34555;-80
2022/10/21 12:37:51;;;;;;;;;;;;;;;16.20;33.58;100807.06;5389529;32;36676;-80
2022/10/21 12:41:25;;;;;;;;;;;;;;;15.81;34.52;100793.34;5396646;32;36392;-84
2022/10/21 12:44:27;;;;;;;;;;;;;;;15.42;35.22;100789.22;5370695;32;36006;-83
2022/10/21 12:47:35;;;;;;;;;;;;;;;15.15;35.29;100786.22;5385975;32;34246;-82
2022/10/21 12:50:38;;;;;;;;;;;;;;;15.24;35.62;100787.53;5382259;32;35635;-82
2022/10/21 12:53:50;;;;;;;;;;;;;;;14.24;37.33;100799.56;5377206;32;44000;-81
2022/10/21 12:57:02;;;;;;;;;;;;;;;15.66;34.75;100777.34;5408413;32;36018;-84
2022/10/21 13:00:23;;;;;;;;;;;;;;;16.04;34.43;100771.75;5378181;32;35024;-80
2022/10/21 13:03:43;;;;;;;;;;;;;;;15.91;34.50;100768.06;5383379;32;34144;-78
2022/10/21 13:06:51;;;;;;;;;;;;;;;15.73;35.19;100771.72;5397928;32;44160;-80
2022/10/21 13:09:53;;;;;;;;;;;;;;;15.69;35.05;100771.00;5360433;32;34666;-79
2022/10/21 13:13:24;;;;;;;;;;;;;;;14.59;37.18;100772.25;5391082;32;35366;-79
2022/10/21 13:16:28;;;;;;;;;;;;;;;15.15;36.37;100762.37;5336744;32;35421;-80
2022/10/21 13:19:31;;;;;;;;;;;;;;;14.24;38.01;100770.47;5382810;32;34779;-80
2022/10/21 13:22:34;;;;;;;;;;;;;;;16.02;34.80;100763.00;5389937;32;35667;-83
2022/10/21 13:25:36;;;;;;;;;;;;;;;16.09;34.61;100760.84;5357568;32;36550;-83
2022/10/21 13:28:38;;;;;;;;;;;;;;;16.40;34.24;100741.41;5405948;32;35637;-81
2022/10/21 13:31:40;;;;;;;;;;;;;;;15.88;35.44;100739.06;5390095;32;33355;-80
2022/10/21 13:35:02;;;;;;;;;;;;;;;15.40;36.18;100731.03;5369778;32;35916;-85
2022/10/21 13:38:19;;;;;;;;;;;;;;;15.28;36.26;100744.06;5392495;32;36335;-81
2022/10/21 13:41:24;;;;;;;;;;;;;;;15.98;35.20;100729.66;5379147;32;34864;-80
2022/10/21 13:44:33;;;;;;;;;;;;;;;16.21;34.64;100729.19;5399580;32;36070;-80
2022/10/21 13:47:35;;;;;;;;;;;;;;;15.23;36.21;100733.72;5373275;32;33858;-80
2022/10/21 13:50:39;;;;;;;;;;;;;;;14.69;37.80;100730.34;5382370;32;34449;-85
2022/10/21 13:53:44;;;;;;;;;;;;;;;15.39;36.13;100731.09;5393818;32;45248;-82
2022/10/21 13:56:47;;;;;;;;;;;;;;;15.66;35.99;100728.78;5383289;32;35870;-81
2022/10/21 13:59:59;;;;;;;;;;;;;;;15.18;36.82;100723.34;5415582;32;35349;-80
2022/10/21 14:03:02;;;;;;;;;;;;;;;15.64;36.12;100720.91;5392358;32;34019;-81
2022/10/21 14:06:07;;;;;;;;;;;;;;;15.47;36.51;100718.31;5369424;32;33483;-82
2022/10/21 14:09:14;;;;;;;;;;;;;;;15.91;35.97;100712.41;5365159;32;34934;-82
2022/10/21 14:12:23;;;;;;;;;;;;;;;16.30;34.95;100708.41;5393251;32;44737;-84
2022/10/21 14:15:32;;;;;;;;;;;;;;;15.08;37.22;100714.19;5404017;32;34114;-82
2022/10/21 14:18:38;;;;;;;;;;;;;;;15.17;37.36;100719.00;5387517;32;35049;-80
2022/10/21 14:21:41;;;;;;;;;;;;;;;14.74;38.36;100708.94;5413143;32;44917;-83
2022/10/21 14:24:44;;;;;;;;;;;;;;;15.40;37.01;100701.91;5363880;32;35187;-79
2022/10/21 14:27:47;;;;;;;;;;;;;;;15.43;37.10;100696.41;5403406;32;35598;-82
2022/10/21 14:30:49;;;;;;;;;;;;;;;15.86;36.10;100703.84;5387022;32;34656;-82
2022/10/21 14:33:51;;;;;;;;;;;;;;;16.11;35.73;100695.34;5375324;32;35177;-83
2022/10/21 14:37:11;;;;;;;;;;;;;;;15.35;36.83;100687.19;5400898;32;34285;-84
2022/10/21 14:40:19;;;;;;;;;;;;;;;15.72;36.65;100691.37;5366995;32;45286;-84
2022/10/21 14:43:23;;;;;;;;;;;;;;;15.74;36.47;100689.47;5383437;32;36235;-85
2022/10/21 14:46:25;;;;;;;;;;;;;;;15.22;37.36;100688.78;5400991;32;33970;-83
2022/10/21 14:49:33;;;;;;;;;;;;;;;14.65;38.60;100693.53;5391392;32;34854;-81
2022/10/21 14:52:37;;;;;;;;;;;;;;;15.56;37.16;100686.00;5402916;32;34845;-80
2022/10/21 14:55:40;;;;;;;;;;;;;;;16.08;36.09;100677.81;5395673;32;44321;-82
2022/10/21 14:58:45;;;;;;;;;;;;;;;15.45;37.35;100683.09;5410005;32;35239;-85
2022/10/21 15:01:47;;;;;;;;;;;;;;;15.22;38.20;100683.50;5389746;32;35563;-80
2022/10/21 15:04:51;;;;;;;;;;;;;;;14.84;38.83;100691.66;5362910;32;34878;-81
2022/10/21 15:08:13;;;;;;;;;;;;;;;14.83;39.27;100688.16;5371899;32;35128;-81
2022/10/21 15:11:17;;;;;;;;;;;;;;;15.03;38.78;100681.81;5363590;32;44991;-84
2022/10/21 15:14:22;;;;;;;;;;;;;;;15.02;39.01;100677.47;5384783;32;34536;-80
2022/10/21 15:17:24;;;;;;;;;;;;;;;16.11;37.50;100661.75;5376269;32;34985;-79
2022/10/21 15:20:29;;;;;;;;;;;;;;;14.95;39.36;100672.59;5382996;32;35289;-77
2022/10/21 15:23:31;;;;;;;;;;;;;;;15.35;38.91;100655.41;5401504;32;33597;-78
2022/10/21 15:26:33;;;;;;;;;;;;;;;15.89;38.16;100648.00;5397446;32;33958;-78
2022/10/21 15:29:36;;;;;;;;;;;;;;;15.87;38.34;100647.22;5401025;32;37034;-78
2022/10/21 15:32:38;;;;;;;;;;;;;;;15.64;38.51;100636.13;5361634;32;34721;-76
2022/10/21 15:35:40;;;;;;;;;;;;;;;15.99;38.55;100646.53;5406097;32;44774;-77
2022/10/21 15:38:46;;;;;;;;;;;;;;;16.53;36.93;100647.75;5375539;32;35742;-80
2022/10/21 15:41:49;;;;;;;;;;;;;;;16.34;37.35;100646.28;5381615;32;34867;-76
2022/10/21 15:44:51;;;;;;;;;;;;;;;15.99;38.40;100646.53;5391521;32;35105;-81
2022/10/21 15:47:53;;;;;;;;;;;;;;;16.08;38.29;100650.44;5374807;32;34196;-79
2022/10/21 15:50:56;;;;;;;;;;;;;;;16.10;38.23;100657.37;5385439;32;34649;-79
2022/10/21 15:53:58;;;;;;;;;;;;;;;16.23;38.28;100653.09;5380220;32;34196;-81
2022/10/21 15:57:01;;;;;;;;;;;;;;;15.71;39.35;100657.84;5390193;32;34202;-81